This is the latest recevied weather packets stored in our database for station/object FHDOHA-13. If no packets are shown the sender has not sent any weather packets the latest 10 day(s).
| Time | Temp. | Humidity | Pressure | Rain* | Wind** | Luminosity | Snow |
|---|---|---|---|---|---|---|---|
| 1777280472 | 13.33° C | 44% | 1024 hPa | 0 mm | - | - | - |
| 1777279571 | 12.22° C | 50% | 1024.1 hPa | 0 mm | - | - | - |
| 1777278671 | 12.22° C | 53% | 1024.1 hPa | 0 mm | - | - | - |
| 1777277772 | 11.67° C | 56% | 1024.2 hPa | 0 mm | - | - | - |
| 1777276872 | 11.67° C | 54% | 1024.2 hPa | 0 mm | - | - | - |
| 1777275971 | 11.11° C | 56% | 1024.3 hPa | 0 mm | - | - | - |
| 1777275072 | 10.56° C | 55% | 1024.3 hPa | 0 mm | - | - | - |
| 1777274171 | 9.44° C | 55% | 1024.4 hPa | 0 mm | - | - | - |
| 1777273272 | 10° C | 50% | 1024.4 hPa | 0 mm | - | - | - |
| 1777272372 | 13.89° C | 43% | 1023.9 hPa | 0 mm | - | - | - |
| 1777271472 | 14.44° C | 45% | 1023.9 hPa | 0 mm | - | - | - |
| 1777270572 | 15° C | 51% | 1023.8 hPa | 0 mm | - | - | - |
| 1777269671 | 12.22° C | 60% | 1024.1 hPa | 0 mm | - | - | - |
| 1777268772 | 3.33° C | 74% | 1025.1 hPa | 0 mm | - | - | - |
| 1777267872 | 3.33° C | 74% | 1025.1 hPa | 0 mm | - | - | - |
| 1777266972 | 2.78° C | 75% | 1025.2 hPa | 0 mm | - | - | - |
| 1777266072 | 2.22° C | 75% | 1025.2 hPa | 0 mm | - | - | - |
| 1777265171 | 2.22° C | 75% | 1025.2 hPa | 0 mm | - | - | - |
| 1777264271 | 2.22° C | 75% | 1025.2 hPa | 0 mm | - | - | - |
| 1777263371 | 2.22° C | 75% | 1025.2 hPa | 0 mm | - | - | - |
| 1777262471 | 2.22° C | 75% | 1025.2 hPa | 0 mm | - | - | - |
| 1777261571 | 2.78° C | 75% | 1025.2 hPa | 0 mm | - | - | - |
| 1777260671 | 2.78° C | 74% | 1025.2 hPa | 0 mm | - | - | - |
| 1777259771 | 2.78° C | 74% | 1025.2 hPa | 0 mm | - | - | - |
| 1777258871 | 2.78° C | 74% | 1025.2 hPa | 0 mm | - | - | - |
* Rain latest hour (hover to see other rain measurements)
** Current wind speed in m/s (hover to see current wind gust speed)